createdAt,value
2019-06-08T00:00:36.941Z,43.36
2019-06-08T00:03:05.585Z,43.34
2019-06-08T00:05:33.701Z,43.38
2019-06-08T00:08:01.787Z,43.35
2019-06-08T00:10:30.889Z,43.37
2019-06-08T00:12:58.971Z,43.38
2019-06-08T00:15:27.224Z,43.38
2019-06-08T00:17:55.314Z,43.35
2019-06-08T00:20:23.768Z,43.30
2019-06-08T00:22:52.149Z,43.30
2019-06-08T00:25:20.962Z,43.30
2019-06-08T00:27:50.255Z,43.33
2019-06-08T00:30:18.680Z,43.32
2019-06-08T00:32:47.744Z,43.35
2019-06-08T00:35:16.551Z,43.34
2019-06-08T00:37:45.841Z,43.35
2019-06-08T00:40:15.211Z,43.37
2019-06-08T00:42:43.334Z,43.39
2019-06-08T00:45:11.855Z,43.41
2019-06-08T00:47:47.587Z,43.40
2019-06-08T00:50:12.115Z,43.43
2019-06-08T00:52:40.244Z,43.39
2019-06-08T00:55:08.504Z,43.40
2019-06-08T00:57:36.615Z,43.43
2019-06-08T01:00:10.593Z,43.44
2019-06-08T01:02:36.908Z,43.47
2019-06-08T01:05:05.438Z,43.47
2019-06-08T01:07:34.545Z,43.47
2019-06-08T01:10:03.575Z,43.51
2019-06-08T01:12:32.156Z,43.51
2019-06-08T01:15:00.415Z,43.53
2019-06-08T01:17:29.360Z,43.55
2019-06-08T01:19:57.964Z,43.59
2019-06-08T01:22:27.641Z,43.63
2019-06-08T01:24:55.884Z,43.62
2019-06-08T01:27:24.001Z,43.63
2019-06-08T01:29:52.194Z,43.58
2019-06-08T01:32:20.333Z,43.56
2019-06-08T01:34:48.697Z,43.62
2019-06-08T01:37:16.993Z,43.61
2019-06-08T01:39:45.078Z,43.62
2019-06-08T01:42:13.227Z,43.63
2019-06-08T01:44:41.615Z,43.67
2019-06-08T01:47:09.865Z,43.72
2019-06-08T01:49:38.037Z,43.75
2019-06-08T01:52:06.434Z,43.80
2019-06-08T01:54:34.509Z,43.85
2019-06-08T01:57:02.560Z,43.89
2019-06-08T01:59:34.168Z,43.98
2019-06-08T02:02:00.657Z,43.97
2019-06-08T02:04:29.977Z,44.01
2019-06-08T02:06:58.319Z,44.06
2019-06-08T02:09:26.575Z,44.11
2019-06-08T02:11:54.665Z,44.13
2019-06-08T02:14:22.755Z,44.17
2019-06-08T02:16:50.896Z,44.23
2019-06-08T02:19:19.099Z,44.27
2019-06-08T02:21:47.171Z,44.33
2019-06-08T02:24:15.895Z,44.36
2019-06-08T02:26:44.531Z,44.40
2019-06-08T02:29:12.761Z,44.40
2019-06-08T02:31:41.979Z,44.47
2019-06-08T02:34:10.417Z,44.54
2019-06-08T02:36:40.706Z,44.56
2019-06-08T02:39:09.076Z,44.56
2019-06-08T02:41:38.265Z,44.56
2019-06-08T02:44:07.759Z,44.59
2019-06-08T02:46:37.590Z,44.61
2019-06-08T02:49:05.980Z,44.59
2019-06-08T02:51:36.463Z,44.63
2019-06-08T02:54:05.355Z,44.67
2019-06-08T02:56:36.747Z,44.67
2019-06-08T02:59:05.665Z,44.67
2019-06-08T03:01:36.010Z,44.66
2019-06-08T03:04:05.424Z,44.63
2019-06-08T03:06:37.382Z,44.58
2019-06-08T03:09:07.050Z,44.57
2019-06-08T03:11:36.882Z,44.54
2019-06-08T03:14:05.261Z,44.51
2019-06-08T03:16:33.431Z,44.48
2019-06-08T03:19:19.868Z,44.45
2019-06-08T03:21:33.954Z,44.41
2019-06-08T03:24:02.641Z,44.36
2019-06-08T03:26:32.140Z,44.34
2019-06-08T03:29:00.311Z,44.28
2019-06-08T03:31:29.345Z,44.27
2019-06-08T03:33:59.136Z,44.20
2019-06-08T03:36:27.211Z,44.10
2019-06-08T03:38:55.239Z,44.00
2019-06-08T03:41:23.476Z,43.93
2019-06-08T03:43:51.486Z,43.81
2019-06-08T03:46:19.511Z,43.74
2019-06-08T03:48:47.503Z,43.65
2019-06-08T03:51:15.640Z,43.64
2019-06-08T03:53:46.397Z,43.58
2019-06-08T03:56:15.991Z,43.53
2019-06-08T03:58:45.966Z,43.50
2019-06-08T04:01:14.997Z,43.49
2019-06-08T04:03:43.902Z,43.43
2019-06-08T04:06:12.290Z,43.44
2019-06-08T04:08:42.140Z,43.40
2019-06-08T04:11:10.605Z,43.41
2019-06-08T04:13:39.963Z,43.42
2019-06-08T04:16:08.385Z,43.40
2019-06-08T04:18:38.008Z,43.42
2019-06-08T04:21:06.385Z,43.47
2019-06-08T04:23:35.531Z,43.47
2019-06-08T04:26:03.610Z,43.44
2019-06-08T04:28:31.615Z,43.47
2019-06-08T04:30:59.664Z,43.43
2019-06-08T04:33:27.887Z,43.43
2019-06-08T04:35:55.931Z,43.44
2019-06-08T04:38:24.279Z,43.44
2019-06-08T04:40:52.341Z,43.44
2019-06-08T04:43:21.531Z,43.42
2019-06-08T04:45:51.650Z,43.44
2019-06-08T04:48:19.660Z,43.46
2019-06-08T04:50:49.644Z,43.54
2019-06-08T04:53:17.732Z,43.62
2019-06-08T04:55:47.081Z,43.68
2019-06-08T04:58:15.531Z,43.72
2019-06-08T05:00:50.120Z,43.76
2019-06-08T05:03:23.987Z,43.79
2019-06-08T05:05:52.050Z,43.83
2019-06-08T05:08:20.087Z,43.84
2019-06-08T05:10:49.691Z,43.90
2019-06-08T05:13:18.011Z,43.91
2019-06-08T05:15:47.463Z,43.92
2019-06-08T05:18:15.710Z,43.91
2019-06-08T05:20:46.050Z,43.87
2019-06-08T05:23:13.755Z,43.90
2019-06-08T05:25:43.097Z,43.88
2019-06-08T05:28:11.303Z,43.89
2019-06-08T05:30:39.443Z,43.88
2019-06-08T05:33:08.889Z,43.85
2019-06-08T05:35:36.960Z,43.86
2019-06-08T05:38:05.350Z,43.86
2019-06-08T05:40:33.407Z,43.84
2019-06-08T05:43:04.364Z,43.88
2019-06-08T05:45:32.399Z,43.90
2019-06-08T05:48:00.418Z,43.90
2019-06-08T05:50:30.573Z,43.93
2019-06-08T05:52:58.658Z,43.92
2019-06-08T05:55:26.823Z,43.97
2019-06-08T05:57:54.967Z,44.00
2019-06-08T06:00:23.809Z,44.04
2019-06-08T06:02:51.960Z,44.04
2019-06-08T06:05:20.284Z,44.08
2019-06-08T06:07:49.009Z,44.10
2019-06-08T06:10:17.781Z,44.11
2019-06-08T06:12:46.954Z,44.13
2019-06-08T06:15:16.423Z,44.17
2019-06-08T06:17:46.633Z,44.23
2019-06-08T06:20:16.176Z,44.24
2019-06-08T06:22:45.870Z,44.25
2019-06-08T06:25:15.059Z,44.26
2019-06-08T06:27:43.441Z,44.24
2019-06-08T06:30:14.937Z,44.23
2019-06-08T06:32:43.810Z,44.24
2019-06-08T06:35:13.146Z,44.20
2019-06-08T06:37:41.834Z,44.18
2019-06-08T06:40:10.111Z,44.14
2019-06-08T06:42:38.147Z,44.16
2019-06-08T06:45:06.670Z,44.15
2019-06-08T06:47:34.710Z,44.13
2019-06-08T06:50:03.175Z,44.12
2019-06-08T06:52:31.267Z,44.11
2019-06-08T06:55:00.281Z,44.05
2019-06-08T06:57:28.311Z,44.03
2019-06-08T06:59:56.356Z,44.01
2019-06-08T07:02:25.634Z,43.95
2019-06-08T07:04:54.355Z,43.86
2019-06-08T07:07:23.084Z,43.78
2019-06-08T07:09:51.137Z,43.72
2019-06-08T07:12:19.606Z,43.64
2019-06-08T07:14:49.021Z,43.58
2019-06-08T07:17:17.289Z,43.50
2019-06-08T07:19:46.373Z,43.32
2019-06-08T07:22:14.610Z,43.21
2019-06-08T07:24:42.750Z,43.08
2019-06-08T07:27:10.818Z,42.93
2019-06-08T07:29:38.807Z,42.81
2019-06-08T07:32:06.900Z,42.77
2019-06-08T07:34:34.975Z,42.67
2019-06-08T07:37:03.043Z,42.51
2019-06-08T07:39:31.106Z,42.46
2019-06-08T07:42:00.015Z,42.52
2019-06-08T07:44:28.186Z,42.38
2019-06-08T07:46:57.408Z,42.29
2019-06-08T07:49:25.550Z,42.19
2019-06-08T07:52:04.097Z,42.08
2019-06-08T07:54:23.628Z,41.96
2019-06-08T07:56:54.832Z,41.93
2019-06-08T07:59:23.072Z,41.77
2019-06-08T08:01:51.882Z,41.71
2019-06-08T08:04:23.078Z,41.60
2019-06-08T08:06:52.221Z,41.52
2019-06-08T08:09:20.711Z,41.29
2019-06-08T08:11:48.646Z,41.11
2019-06-08T08:14:16.681Z,41.12
2019-06-08T08:16:44.853Z,41.11
2019-06-08T08:19:12.860Z,41.01
2019-06-08T08:21:41.066Z,40.99
2019-06-08T08:24:09.181Z,40.88
2019-06-08T08:26:39.098Z,40.82
2019-06-08T08:29:08.468Z,40.81
2019-06-08T08:31:37.430Z,40.63
2019-06-08T08:34:08.993Z,40.44
2019-06-08T08:36:38.108Z,40.39
2019-06-08T08:39:08.405Z,40.28
2019-06-08T08:41:39.040Z,40.22
2019-06-08T08:44:07.968Z,39.99
2019-06-08T08:46:38.656Z,39.81
2019-06-08T08:49:12.293Z,39.70
2019-06-08T08:51:38.455Z,39.65
2019-06-08T08:54:08.563Z,39.50
2019-06-08T08:56:38.394Z,39.31
2019-06-08T08:59:07.746Z,39.02
2019-06-08T09:01:38.305Z,38.85
2019-06-08T09:04:08.957Z,38.78
2019-06-08T09:06:38.140Z,38.61
2019-06-08T09:09:08.879Z,38.47
2019-06-08T09:11:38.341Z,38.37
2019-06-08T09:14:10.898Z,38.19
2019-06-08T09:16:38.376Z,38.06
2019-06-08T09:19:08.509Z,38.04
2019-06-08T09:21:38.394Z,37.80
2019-06-08T09:24:07.689Z,37.60
2019-06-08T09:26:38.049Z,37.55
2019-06-08T09:29:10.729Z,37.46
2019-06-08T09:31:38.908Z,37.41
2019-06-08T09:34:14.093Z,37.25
2019-06-08T09:36:37.561Z,37.09
2019-06-08T09:39:12.089Z,37.10
2019-06-08T09:41:38.026Z,37.10
2019-06-08T09:44:10.631Z,37.02
2019-06-08T09:46:38.375Z,36.75
2019-06-08T09:49:09.377Z,36.60
2019-06-08T09:51:37.876Z,36.51
2019-06-08T09:54:09.177Z,36.41
2019-06-08T09:56:37.920Z,36.41
2019-06-08T09:59:10.540Z,36.37
2019-06-08T10:01:38.296Z,36.26
2019-06-08T10:04:09.180Z,36.08
2019-06-08T10:06:37.692Z,35.96
2019-06-08T10:09:09.026Z,36.00
2019-06-08T10:11:38.849Z,35.67
2019-06-08T10:14:18.691Z,35.36
2019-06-08T10:16:50.640Z,35.07
2019-06-08T10:19:18.936Z,34.95
2019-06-08T10:21:48.153Z,34.76
2019-06-08T10:24:16.444Z,34.55
2019-06-08T10:26:47.625Z,34.47
2019-06-08T10:29:14.815Z,34.23
2019-06-08T10:31:43.781Z,34.20
2019-06-08T10:34:12.317Z,34.16
2019-06-08T10:36:40.417Z,34.04
2019-06-08T10:39:11.474Z,33.90
2019-06-08T10:41:38.919Z,33.77
2019-06-08T10:44:08.543Z,33.81
2019-06-08T10:46:40.238Z,33.76
2019-06-08T10:49:09.581Z,33.76
2019-06-08T10:51:40.809Z,33.66
2019-06-08T10:54:11.168Z,33.68
2019-06-08T10:56:39.341Z,33.85
2019-06-08T10:59:10.554Z,33.71
2019-06-08T11:01:38.702Z,33.53
2019-06-08T11:04:07.329Z,33.32
2019-06-08T11:06:39.897Z,33.12
2019-06-08T11:09:14.341Z,33.01
2019-06-08T11:11:38.522Z,33.07
2019-06-08T11:14:12.072Z,33.20
2019-06-08T11:16:38.581Z,32.93
2019-06-08T11:19:12.991Z,32.82
2019-06-08T11:21:38.700Z,32.75
2019-06-08T11:26:20.929Z,32.58
2019-06-08T11:28:44.227Z,32.90
2019-06-08T11:31:15.954Z,33.59
2019-06-08T11:33:42.316Z,34.10
2019-06-08T11:36:14.443Z,34.55
2019-06-08T11:38:41.386Z,34.95
2019-06-08T11:41:12.203Z,34.97
2019-06-08T11:43:39.344Z,35.10
2019-06-08T11:46:08.428Z,35.41
2019-06-08T11:48:40.870Z,35.59
2019-06-08T11:51:09.049Z,35.74
2019-06-08T11:53:38.472Z,35.81
2019-06-08T11:56:09.469Z,35.82
2019-06-08T11:58:38.754Z,35.93
2019-06-08T12:01:11.880Z,36.11
2019-06-08T12:03:39.049Z,36.23
2019-06-08T12:06:10.473Z,36.40
2019-06-08T12:08:38.380Z,36.48
2019-06-08T12:11:10.662Z,36.59
2019-06-08T12:13:37.090Z,36.71
2019-06-08T12:16:05.286Z,36.86
2019-06-08T12:18:33.406Z,37.02
2019-06-08T12:21:01.659Z,37.14
2019-06-08T12:23:29.759Z,37.26
2019-06-08T12:25:59.754Z,37.38
2019-06-08T12:28:28.138Z,37.51
2019-06-08T12:30:56.308Z,37.63
2019-06-08T12:33:24.388Z,37.73
2019-06-08T12:35:52.450Z,37.78
2019-06-08T12:38:20.958Z,37.85
2019-06-08T12:40:49.592Z,37.86
2019-06-08T12:43:19.815Z,37.81
2019-06-08T12:45:47.613Z,37.86
2019-06-08T12:48:19.595Z,37.93
2019-06-08T12:50:47.835Z,38.03
2019-06-08T12:53:20.180Z,38.13
2019-06-08T12:55:47.636Z,38.20
2019-06-08T12:58:17.110Z,38.35
2019-06-08T13:00:48.238Z,38.47
2019-06-08T13:03:16.838Z,38.58
2019-06-08T13:05:45.375Z,38.61
2019-06-08T13:08:13.759Z,38.70
2019-06-08T13:10:42.782Z,38.77
2019-06-08T13:13:12.704Z,38.91
2019-06-08T13:15:40.954Z,38.94
2019-06-08T13:18:10.651Z,39.05
2019-06-08T13:20:39.816Z,39.16
2019-06-08T13:23:09.606Z,39.12
2019-06-08T13:25:43.434Z,39.09
2019-06-08T13:28:12.747Z,39.15
2019-06-08T13:30:38.980Z,39.17
2019-06-08T13:33:09.939Z,39.28
2019-06-08T13:35:39.498Z,39.35
2019-06-08T13:38:08.736Z,39.47
2019-06-08T13:40:40.336Z,39.48
2019-06-08T13:43:08.262Z,39.43
2019-06-08T13:45:39.128Z,39.43
2019-06-08T13:48:08.704Z,39.46
2019-06-08T13:50:36.510Z,39.46
2019-06-08T13:53:04.552Z,39.50
2019-06-08T13:55:48.005Z,39.60
2019-06-08T13:58:02.705Z,39.58
2019-06-08T14:00:34.848Z,39.61
2019-06-08T14:03:05.476Z,39.69
2019-06-08T14:05:33.573Z,39.76
2019-06-08T14:08:01.703Z,39.80
2019-06-08T14:10:37.889Z,39.90
2019-06-08T14:13:07.041Z,39.56
2019-06-08T14:15:37.668Z,39.27
2019-06-08T14:18:05.217Z,39.18
2019-06-08T14:20:34.579Z,38.99
2019-06-08T14:23:02.845Z,38.82
2019-06-08T14:25:46.590Z,38.60
2019-06-08T14:28:01.281Z,38.34
2019-06-08T14:30:33.094Z,38.07
2019-06-08T14:32:59.601Z,38.07
2019-06-08T14:35:28.539Z,38.11
2019-06-08T14:37:57.919Z,38.27
2019-06-08T14:40:31.016Z,38.51
2019-06-08T14:42:58.055Z,38.46
2019-06-08T14:45:28.881Z,38.36
2019-06-08T14:47:58.581Z,38.54
2019-06-08T14:50:28.998Z,38.59
2019-06-08T14:52:58.851Z,38.56
2019-06-08T14:55:32.070Z,38.20
2019-06-08T14:57:58.144Z,37.95
2019-06-08T15:00:27.824Z,37.77
2019-06-08T15:02:58.663Z,37.58
2019-06-08T15:05:28.872Z,37.54
2019-06-08T15:08:00.428Z,37.33
2019-06-08T15:10:29.353Z,37.28
2019-06-08T15:12:57.786Z,37.12
2019-06-08T15:15:28.859Z,37.04
2019-06-08T15:17:58.480Z,36.92
2019-06-08T15:20:26.651Z,36.85
2019-06-08T15:22:57.957Z,36.81
2019-06-08T15:25:27.325Z,36.50
2019-06-08T15:27:58.184Z,36.37
2019-06-08T15:30:29.470Z,36.40
2019-06-08T15:32:58.415Z,36.29
2019-06-08T15:35:27.353Z,36.13
2019-06-08T15:37:58.243Z,36.06
2019-06-08T15:40:25.915Z,35.91
2019-06-08T15:42:54.769Z,35.95
2019-06-08T15:45:24.221Z,35.92
2019-06-08T15:47:53.844Z,35.80
2019-06-08T15:50:22.293Z,35.74
2019-06-08T15:52:50.448Z,35.67
2019-06-08T15:55:19.475Z,35.58
2019-06-08T15:57:48.886Z,35.57
2019-06-08T16:00:19.269Z,35.47
2019-06-08T16:02:47.632Z,35.35
2019-06-08T16:05:15.758Z,35.33
2019-06-08T16:07:43.818Z,35.22
2019-06-08T16:10:11.913Z,35.11
2019-06-08T16:12:40.117Z,35.01
2019-06-08T16:15:08.195Z,34.98
2019-06-08T16:17:36.260Z,35.02
2019-06-08T16:20:05.625Z,34.95
2019-06-08T16:22:33.892Z,34.80
2019-06-08T16:25:02.067Z,34.69
2019-06-08T16:27:30.196Z,34.61
2019-06-08T16:29:58.206Z,34.63
2019-06-08T16:32:27.365Z,34.51
2019-06-08T16:34:56.645Z,34.48
2019-06-08T16:37:24.690Z,34.39
2019-06-08T16:39:52.723Z,34.34
2019-06-08T16:42:21.745Z,34.34
2019-06-08T16:44:49.869Z,34.28
2019-06-08T16:47:17.887Z,34.25
2019-06-08T16:49:46.233Z,34.19
2019-06-08T16:52:17.163Z,34.20
2019-06-08T16:54:44.278Z,34.09
2019-06-08T16:57:12.327Z,34.01
2019-06-08T16:59:40.424Z,34.00
2019-06-08T17:02:08.916Z,34.06
2019-06-08T17:04:37.331Z,34.02
2019-06-08T17:07:05.340Z,33.99
2019-06-08T17:09:34.274Z,33.92
2019-06-08T17:12:02.849Z,33.74
2019-06-08T17:14:31.986Z,33.65
2019-06-08T17:17:00.267Z,33.61
2019-06-08T17:19:28.371Z,33.61
2019-06-08T17:21:56.460Z,33.74
2019-06-08T17:24:24.532Z,33.70
2019-06-08T17:26:53.644Z,33.64
2019-06-08T17:31:43.917Z,33.77
2019-06-08T17:34:12.100Z,33.24
2019-06-08T17:36:40.693Z,32.85
2019-06-08T17:39:08.845Z,32.56
2019-06-08T17:41:38.102Z,32.37
2019-06-08T17:44:06.338Z,32.21
2019-06-08T17:46:34.598Z,32.15
2019-06-08T17:49:02.674Z,32.01
2019-06-08T17:51:30.708Z,31.97
2019-06-08T17:53:59.071Z,31.97
2019-06-08T17:56:27.048Z,31.93
2019-06-08T17:58:55.877Z,31.90
2019-06-08T18:01:24.170Z,31.90
2019-06-08T18:03:52.251Z,31.92
2019-06-08T18:06:20.590Z,31.92
2019-06-08T18:08:49.697Z,31.92
2019-06-08T18:11:19.530Z,31.95
2019-06-08T18:13:48.387Z,31.93
2019-06-08T18:16:19.456Z,32.00
2019-06-08T18:18:48.589Z,32.02
2019-06-08T18:21:17.819Z,32.05
2019-06-08T18:23:48.175Z,32.10
2019-06-08T18:26:17.241Z,32.13
2019-06-08T18:28:48.334Z,32.16
2019-06-08T18:31:17.987Z,32.18
2019-06-08T18:33:47.743Z,32.23
2019-06-08T18:36:17.127Z,32.17
2019-06-08T18:38:46.189Z,32.23
2019-06-08T18:41:17.656Z,32.27
2019-06-08T18:43:48.495Z,32.25
2019-06-08T18:46:17.951Z,32.29
2019-06-08T18:48:49.312Z,32.36
2019-06-08T18:51:17.516Z,32.39
2019-06-08T18:54:06.793Z,32.42
2019-06-08T18:56:18.239Z,32.49
2019-06-08T18:58:48.410Z,32.53
2019-06-08T19:01:21.587Z,32.57
2019-06-08T19:03:49.820Z,32.63
2019-06-08T19:06:18.728Z,32.66
2019-06-08T19:08:49.354Z,32.70
2019-06-08T19:11:19.288Z,32.76
2019-06-08T19:13:48.127Z,32.79
2019-06-08T19:16:18.186Z,32.81
2019-06-08T19:18:49.985Z,32.85
2019-06-08T19:21:17.821Z,32.87
2019-06-08T19:23:49.246Z,32.94
2019-06-08T19:26:17.212Z,32.96
2019-06-08T19:28:51.482Z,32.96
2019-06-08T19:31:17.598Z,33.00
2019-06-08T19:33:51.367Z,33.06
2019-06-08T19:36:17.170Z,33.10
2019-06-08T19:38:48.079Z,33.13
2019-06-08T19:41:17.370Z,33.12
2019-06-08T19:43:50.559Z,33.15
2019-06-08T19:46:18.081Z,33.19
2019-06-08T19:48:53.333Z,33.21
2019-06-08T19:51:17.086Z,33.27
2019-06-08T19:53:49.475Z,33.32
2019-06-08T19:56:17.341Z,33.36
2019-06-08T19:58:58.078Z,33.40
2019-06-08T20:01:18.291Z,33.47
2019-06-08T20:03:47.002Z,33.51
2019-06-08T20:06:15.149Z,33.55
2019-06-08T20:08:45.435Z,33.60
2019-06-08T20:11:13.607Z,33.66
2019-06-08T20:13:41.577Z,33.67
2019-06-08T20:16:18.859Z,33.71
2019-06-08T20:18:48.604Z,33.76
2019-06-08T20:21:18.201Z,33.77
2019-06-08T20:23:49.200Z,33.83
2019-06-08T20:26:17.723Z,33.89
2019-06-08T20:29:11.573Z,33.92
2019-06-08T20:31:27.350Z,33.97
2019-06-08T20:33:57.602Z,33.99
2019-06-08T20:36:26.650Z,34.00
2019-06-08T20:38:57.794Z,34.05
2019-06-08T20:41:27.746Z,34.13
2019-06-08T20:44:04.145Z,34.17
2019-06-08T20:46:37.614Z,34.19
2019-06-08T20:49:13.584Z,34.22
2019-06-08T20:51:42.477Z,34.28
2019-06-08T20:54:10.657Z,34.34
2019-06-08T20:56:38.903Z,34.39
2019-06-08T20:59:08.255Z,34.44
2019-06-08T21:01:36.773Z,34.47
2019-06-08T21:04:07.565Z,34.52
2019-06-08T21:06:38.463Z,34.56
2019-06-08T21:09:07.805Z,34.59
2019-06-08T21:11:58.766Z,34.65
2019-06-08T21:14:28.091Z,34.69
2019-06-08T21:16:58.659Z,34.74
2019-06-08T21:19:28.092Z,34.79
2019-06-08T21:21:59.388Z,34.86
2019-06-08T21:24:28.224Z,34.89
2019-06-08T21:27:00.202Z,34.93
2019-06-08T21:29:38.840Z,34.97
2019-06-08T21:32:01.839Z,35.00
2019-06-08T21:34:27.774Z,35.06
2019-06-08T21:37:00.306Z,35.10
2019-06-08T21:39:28.230Z,35.16
2019-06-08T21:42:01.355Z,35.17
2019-06-08T21:44:27.843Z,35.23
2019-06-08T21:47:00.784Z,35.27
2019-06-08T21:49:27.743Z,35.32
2019-06-08T21:51:59.627Z,35.35
2019-06-08T21:54:27.200Z,35.41
2019-06-08T21:56:58.960Z,35.45
2019-06-08T21:59:26.391Z,35.50
2019-06-08T22:01:58.529Z,35.53
2019-06-08T22:04:24.520Z,35.58
2019-06-08T22:06:54.007Z,35.63
2019-06-08T22:09:22.269Z,35.69
2019-06-08T22:11:51.510Z,35.73
2019-06-08T22:14:20.729Z,35.77
2019-06-08T22:16:48.818Z,35.81
2019-06-08T22:19:18.418Z,35.84
2019-06-08T22:21:48.020Z,35.87
2019-06-08T22:24:17.175Z,35.88
2019-06-08T22:26:45.338Z,35.99
2019-06-08T22:29:13.427Z,35.96
2019-06-08T22:31:41.485Z,35.95
2019-06-08T22:34:09.532Z,36.02
2019-06-08T22:36:37.844Z,36.00
2019-06-08T22:39:08.068Z,36.09
2019-06-08T22:41:38.294Z,36.35
2019-06-08T22:44:08.254Z,36.34
2019-06-08T22:46:37.512Z,36.33
2019-06-08T22:49:07.994Z,36.36
2019-06-08T22:51:38.080Z,36.45
2019-06-08T22:54:07.970Z,36.50
2019-06-08T22:56:37.144Z,36.78
2019-06-08T22:59:06.751Z,36.72
2019-06-08T23:01:35.372Z,36.84
2019-06-08T23:04:04.337Z,36.99
2019-06-08T23:06:33.294Z,37.16
2019-06-08T23:09:02.981Z,37.15
2019-06-08T23:11:33.029Z,37.20
2019-06-08T23:14:02.900Z,37.23
2019-06-08T23:16:31.287Z,37.44
2019-06-08T23:19:00.603Z,37.67
2019-06-08T23:21:29.991Z,37.60
2019-06-08T23:24:00.643Z,37.59
2019-06-08T23:26:28.197Z,37.77
2019-06-08T23:28:56.180Z,37.69
2019-06-08T23:31:25.715Z,37.74
2019-06-08T23:33:54.299Z,37.69
2019-06-08T23:36:46.029Z,37.80
2019-06-08T23:38:52.603Z,37.87
2019-06-08T23:41:21.380Z,38.04
2019-06-08T23:43:49.647Z,38.09
2019-06-08T23:46:18.218Z,38.29
2019-06-08T23:48:48.396Z,38.19
2019-06-08T23:51:18.519Z,38.34
2019-06-08T23:53:47.748Z,38.26
2019-06-08T23:56:18.132Z,38.14
2019-06-08T23:58:48.194Z,38.21
